createdAt,value
2019-05-26T00:00:05.714Z,17.43
2019-05-26T00:02:34.192Z,17.93
2019-05-26T00:05:02.719Z,18.53
2019-05-26T00:07:31.299Z,17.63
2019-05-26T00:09:59.844Z,18.17
2019-05-26T00:12:28.288Z,17.93
2019-05-26T00:14:56.803Z,18.00
2019-05-26T00:17:25.350Z,18.67
2019-05-26T00:19:53.865Z,17.87
2019-05-26T00:22:22.342Z,18.60
2019-05-26T00:24:50.904Z,18.70
2019-05-26T00:27:19.518Z,19.30
2019-05-26T00:29:48.204Z,18.73
2019-05-26T00:32:16.888Z,19.77
2019-05-26T00:34:45.473Z,19.50
2019-05-26T00:37:14.039Z,19.93
2019-05-26T00:39:42.454Z,18.50
2019-05-26T00:42:11.031Z,19.47
2019-05-26T00:44:39.495Z,19.97
2019-05-26T00:47:07.983Z,20.07
2019-05-26T00:49:36.551Z,19.17
2019-05-26T00:52:05.036Z,20.10
2019-05-26T00:54:33.564Z,20.37
2019-05-26T00:57:02.017Z,19.63
2019-05-26T00:59:30.590Z,19.17
2019-05-26T01:01:59.174Z,19.27
2019-05-26T01:04:27.814Z,18.53
2019-05-26T01:06:56.723Z,18.60
2019-05-26T01:09:25.326Z,18.83
2019-05-26T01:11:53.826Z,19.57
2019-05-26T01:14:22.310Z,17.70
2019-05-26T01:16:50.812Z,16.97
2019-05-26T01:19:19.263Z,16.50
2019-05-26T01:21:47.810Z,15.03
2019-05-26T01:24:16.270Z,15.57
2019-05-26T01:26:44.790Z,14.20
2019-05-26T01:29:13.341Z,15.07
2019-05-26T01:31:42.000Z,14.60
2019-05-26T01:34:10.503Z,14.20
2019-05-26T01:36:39.092Z,14.73
2019-05-26T01:39:08.189Z,15.77
2019-05-26T01:41:36.818Z,15.83
2019-05-26T01:44:05.292Z,15.53
2019-05-26T01:46:39.243Z,15.17
2019-05-26T01:49:07.795Z,16.07
2019-05-26T01:51:36.279Z,16.50
2019-05-26T01:54:04.745Z,15.37
2019-05-26T01:56:33.291Z,16.97
2019-05-26T01:59:01.790Z,15.97
2019-05-26T02:01:30.303Z,16.53
2019-05-26T02:03:58.931Z,17.10
2019-05-26T02:06:27.438Z,16.27
2019-05-26T02:08:55.910Z,16.50
2019-05-26T02:11:24.387Z,16.60
2019-05-26T02:13:52.867Z,16.80
2019-05-26T02:16:21.443Z,17.20
2019-05-26T02:18:49.875Z,17.43
2019-05-26T02:21:18.335Z,16.13
2019-05-26T02:23:46.843Z,16.93
2019-05-26T02:26:17.100Z,16.17
2019-05-26T02:28:45.639Z,17.00
2019-05-26T02:31:14.123Z,16.97
2019-05-26T02:33:42.569Z,17.60
2019-05-26T02:36:11.046Z,18.20
2019-05-26T02:38:57.435Z,18.03
2019-05-26T02:41:09.867Z,17.17
2019-05-26T02:43:38.331Z,16.33
2019-05-26T02:46:06.928Z,17.50
2019-05-26T02:48:35.366Z,17.23
2019-05-26T02:51:03.890Z,17.10
2019-05-26T02:53:32.419Z,17.30
2019-05-26T02:56:00.961Z,17.40
2019-05-26T02:58:29.515Z,17.97
2019-05-26T03:12:06.162Z,17.20
2019-05-26T03:14:34.885Z,17.63
2019-05-26T03:17:03.442Z,16.13
2019-05-26T03:19:34.035Z,16.73
2019-05-26T03:22:02.487Z,17.30
2019-05-26T03:24:31.099Z,17.53
2019-05-26T03:26:59.611Z,16.03
2019-05-26T03:29:28.081Z,16.90
2019-05-26T03:31:56.669Z,16.77
2019-05-26T03:34:25.145Z,16.77
2019-05-26T03:36:53.606Z,17.57
2019-05-26T03:39:39.660Z,17.17
2019-05-26T03:41:52.381Z,17.40
2019-05-26T03:44:20.860Z,17.30
2019-05-26T03:46:49.320Z,18.23
2019-05-26T03:49:17.864Z,17.13
2019-05-26T03:51:46.343Z,17.70
2019-05-26T03:54:14.990Z,17.60
2019-05-26T03:56:43.587Z,16.77
2019-05-26T03:59:12.277Z,17.03
2019-05-26T04:01:44.769Z,17.70
2019-05-26T04:04:13.233Z,16.43
2019-05-26T04:06:41.807Z,16.60
2019-05-26T04:09:10.313Z,15.60
2019-05-26T04:11:38.815Z,16.13
2019-05-26T04:14:07.960Z,16.27
2019-05-26T04:16:36.471Z,15.10
2019-05-26T04:19:04.911Z,14.77
2019-05-26T04:21:33.392Z,14.83
2019-05-26T04:24:01.920Z,14.17
2019-05-26T04:26:30.634Z,14.57
2019-05-26T04:28:59.151Z,14.57
2019-05-26T04:31:27.664Z,14.00
2019-05-26T04:33:56.118Z,14.33
2019-05-26T04:36:24.714Z,13.50
2019-05-26T04:38:53.312Z,14.60
2019-05-26T04:41:21.750Z,14.27
2019-05-26T04:43:50.233Z,13.77
2019-05-26T04:46:18.711Z,12.97
2019-05-26T04:48:47.191Z,13.37
2019-05-26T04:51:15.672Z,14.23
2019-05-26T04:53:44.151Z,14.17
2019-05-26T04:56:12.630Z,13.17
2019-05-26T04:58:41.285Z,13.30
2019-05-26T05:01:09.808Z,12.93
2019-05-26T05:03:38.299Z,13.23
2019-05-26T05:06:06.764Z,12.57
2019-05-26T05:08:35.242Z,13.97
2019-05-26T05:11:03.743Z,12.60
2019-05-26T05:13:32.315Z,12.30
2019-05-26T05:16:00.938Z,13.13
2019-05-26T05:18:29.501Z,13.20
2019-05-26T05:20:58.099Z,12.50
2019-05-26T05:23:26.550Z,13.13
2019-05-26T05:25:55.141Z,13.07
2019-05-26T05:28:23.773Z,12.67
2019-05-26T05:30:52.245Z,13.10
2019-05-26T05:33:20.731Z,13.57
2019-05-26T05:35:49.347Z,12.53
2019-05-26T05:38:17.831Z,13.23
2019-05-26T05:40:59.123Z,13.33
2019-05-26T05:43:16.598Z,13.20
2019-05-26T05:45:45.238Z,13.27
2019-05-26T05:48:13.821Z,12.60
2019-05-26T05:50:42.450Z,13.50
2019-05-26T05:53:11.049Z,12.83
2019-05-26T05:55:39.604Z,14.57
2019-05-26T05:58:08.254Z,15.70
2019-05-26T06:00:36.899Z,13.70
2019-05-26T06:03:05.346Z,14.33
2019-05-26T06:05:33.818Z,13.83
2019-05-26T06:08:02.371Z,14.40
2019-05-26T06:10:30.883Z,14.53
2019-05-26T06:12:59.430Z,14.40
2019-05-26T06:15:27.871Z,15.83
2019-05-26T06:17:56.451Z,13.90
2019-05-26T06:20:24.908Z,15.00
2019-05-26T06:22:53.551Z,14.67
2019-05-26T06:25:22.152Z,14.53
2019-05-26T06:27:50.755Z,14.87
2019-05-26T06:30:19.327Z,14.20
2019-05-26T06:32:47.810Z,14.40
2019-05-26T06:35:16.299Z,13.53
2019-05-26T06:37:44.776Z,14.20
2019-05-26T06:40:13.447Z,14.17
2019-05-26T06:42:42.047Z,15.37
2019-05-26T06:45:10.525Z,14.67
2019-05-26T06:47:39.222Z,14.80
2019-05-26T06:50:08.450Z,14.70
2019-05-26T06:52:36.917Z,15.97
2019-05-26T06:55:06.272Z,16.53
2019-05-26T06:57:34.720Z,16.43
2019-05-26T07:00:04.094Z,16.33
2019-05-26T07:02:32.575Z,16.67
2019-05-26T07:05:01.096Z,17.13
2019-05-26T07:07:29.747Z,16.30
2019-05-26T07:09:58.310Z,16.47
2019-05-26T07:12:26.825Z,16.63
2019-05-26T07:15:01.521Z,16.23
2019-05-26T07:17:29.963Z,16.60
2019-05-26T07:19:58.463Z,17.40
2019-05-26T07:22:27.141Z,16.33
2019-05-26T07:24:56.651Z,17.23
2019-05-26T07:27:25.196Z,15.80
2019-05-26T07:29:53.864Z,16.60
2019-05-26T07:32:22.507Z,16.50
2019-05-26T07:34:50.986Z,17.43
2019-05-26T07:37:19.561Z,18.40
2019-05-26T07:39:48.095Z,17.73
2019-05-26T07:42:26.013Z,18.40
2019-05-26T07:44:54.572Z,18.40
2019-05-26T07:47:23.103Z,19.13
2019-05-26T07:49:53.256Z,18.73
2019-05-26T07:52:22.222Z,18.13
2019-05-26T07:54:50.880Z,18.87
2019-05-26T07:57:19.452Z,20.33
2019-05-26T07:59:48.022Z,21.60
2019-05-26T08:02:16.665Z,18.23
2019-05-26T08:04:45.127Z,18.70
2019-05-26T08:07:13.744Z,19.47
2019-05-26T08:09:42.312Z,20.50
2019-05-26T08:12:24.884Z,21.10
2019-05-26T08:14:40.908Z,18.37
2019-05-26T08:17:09.534Z,21.00
2019-05-26T08:19:38.101Z,20.47
2019-05-26T08:22:06.596Z,19.77
2019-05-26T08:24:35.479Z,17.37
2019-05-26T08:27:04.331Z,19.07
2019-05-26T08:29:33.040Z,18.40
2019-05-26T08:32:01.521Z,20.73
2019-05-26T08:34:30.079Z,17.03
2019-05-26T08:36:58.619Z,18.73
2019-05-26T08:39:27.488Z,16.93
2019-05-26T08:41:55.960Z,17.90
2019-05-26T08:44:24.590Z,17.57
2019-05-26T08:46:53.274Z,17.47
2019-05-26T08:49:21.735Z,17.80
2019-05-26T08:51:50.208Z,18.80
2019-05-26T08:54:20.119Z,21.30
2019-05-26T08:56:48.801Z,17.63
2019-05-26T08:59:17.311Z,15.93
2019-05-26T09:01:45.769Z,19.10
2019-05-26T09:04:14.488Z,23.23
2019-05-26T09:06:42.972Z,21.60
2019-05-26T09:09:11.456Z,16.80
2019-05-26T09:11:40.031Z,19.73
2019-05-26T09:14:08.578Z,19.47
2019-05-26T09:16:37.207Z,18.63
2019-05-26T09:19:05.672Z,17.37
2019-05-26T09:21:34.207Z,16.13
2019-05-26T09:24:02.908Z,15.27
2019-05-26T09:26:31.593Z,18.03
2019-05-26T09:29:00.191Z,17.10
2019-05-26T09:31:28.828Z,16.43
2019-05-26T09:33:57.450Z,18.10
2019-05-26T09:36:26.094Z,17.80
2019-05-26T09:38:54.676Z,15.20
2019-05-26T09:41:23.191Z,16.20
2019-05-26T09:43:51.803Z,15.47
2019-05-26T09:46:20.373Z,14.40
2019-05-26T09:48:49.009Z,16.13
2019-05-26T09:51:17.617Z,15.73
2019-05-26T09:54:00.866Z,14.30
2019-05-26T09:56:18.095Z,15.27
2019-05-26T09:58:46.679Z,14.37
2019-05-26T10:01:15.480Z,18.07
2019-05-26T10:03:44.527Z,14.87
2019-05-26T10:06:13.097Z,16.27
2019-05-26T10:08:41.723Z,16.20
2019-05-26T10:11:10.351Z,15.60
2019-05-26T10:13:38.831Z,14.70
2019-05-26T10:16:07.301Z,15.00
2019-05-26T10:18:35.879Z,14.00
2019-05-26T10:21:04.430Z,14.90
2019-05-26T10:23:32.974Z,13.93
2019-05-26T10:26:01.464Z,14.10
2019-05-26T10:28:29.972Z,13.70
2019-05-26T10:30:58.574Z,14.20
2019-05-26T10:33:27.051Z,14.20
2019-05-26T10:35:55.534Z,13.30
2019-05-26T10:38:24.274Z,14.70
2019-05-26T10:40:52.753Z,12.57
2019-05-26T10:43:21.307Z,13.40
2019-05-26T10:45:49.930Z,12.33
2019-05-26T10:48:18.408Z,13.53
2019-05-26T10:50:47.031Z,13.70
2019-05-26T10:53:15.637Z,13.30
2019-05-26T10:55:44.366Z,12.83
2019-05-26T10:58:12.854Z,12.23
2019-05-26T11:00:42.143Z,12.47
2019-05-26T11:03:10.680Z,12.00
2019-05-26T11:05:39.273Z,11.77
2019-05-26T11:08:08.384Z,10.50
2019-05-26T11:10:36.948Z,10.47
2019-05-26T11:13:05.681Z,11.33
2019-05-26T11:15:34.360Z,10.30
2019-05-26T11:18:02.878Z,11.33
2019-05-26T11:20:31.399Z,10.90
2019-05-26T11:23:00.230Z,10.73
2019-05-26T11:25:28.777Z,8.93
2019-05-26T11:27:57.395Z,9.53
2019-05-26T11:30:26.654Z,9.90
2019-05-26T11:32:59.686Z,9.87
2019-05-26T11:35:28.612Z,8.20
2019-05-26T11:37:57.056Z,8.93
2019-05-26T11:40:26.316Z,8.33
2019-05-26T11:42:55.116Z,8.70
2019-05-26T11:45:25.448Z,9.03
2019-05-26T11:47:54.072Z,8.30
2019-05-26T11:50:24.358Z,8.57
2019-05-26T11:52:53.038Z,8.40
2019-05-26T11:55:22.054Z,8.60
2019-05-26T11:57:52.282Z,8.53
2019-05-26T12:00:20.922Z,8.73
2019-05-26T12:02:51.007Z,7.47
2019-05-26T12:05:20.857Z,8.37
2019-05-26T12:07:49.614Z,6.93
2019-05-26T12:10:18.246Z,8.43
2019-05-26T12:12:47.039Z,7.73
2019-05-26T12:15:16.040Z,7.43
2019-05-26T12:17:47.189Z,7.13
2019-05-26T12:20:16.082Z,7.57
2019-05-26T12:22:48.557Z,7.90
2019-05-26T12:25:17.221Z,8.07
2019-05-26T12:27:45.971Z,7.63
2019-05-26T12:30:16.155Z,7.57
2019-05-26T12:32:44.788Z,7.73
2019-05-26T12:35:17.006Z,7.00
2019-05-26T12:37:48.267Z,7.67
2019-05-26T12:40:15.668Z,6.87
2019-05-26T12:42:44.382Z,8.10
2019-05-26T12:45:15.403Z,6.97
2019-05-26T12:47:43.921Z,6.90
2019-05-26T12:50:12.541Z,6.47
2019-05-26T12:52:42.927Z,6.80
2019-05-26T12:55:11.549Z,6.60
2019-05-26T12:57:40.184Z,6.90
2019-05-26T13:00:10.187Z,7.67
2019-05-26T13:02:40.376Z,8.20
2019-05-26T13:05:10.850Z,8.20
2019-05-26T13:07:39.735Z,7.07
2019-05-26T13:10:08.631Z,7.20
2019-05-26T13:12:37.387Z,7.43
2019-05-26T13:15:09.655Z,6.83
2019-05-26T13:17:38.119Z,6.30
2019-05-26T13:20:07.357Z,7.03
2019-05-26T13:22:36.035Z,7.23
2019-05-26T13:25:07.912Z,6.87
2019-05-26T13:27:36.482Z,7.13
2019-05-26T13:30:20.246Z,6.70
2019-05-26T13:32:49.445Z,6.37
2019-05-26T13:35:18.844Z,6.20
2019-05-26T13:37:47.359Z,6.27
2019-05-26T13:40:15.857Z,5.67
2019-05-26T13:42:44.594Z,5.77
2019-05-26T13:45:22.354Z,5.83
2019-05-26T13:47:43.961Z,5.60
2019-05-26T13:50:13.953Z,6.07
2019-05-26T13:52:42.839Z,6.20
2019-05-26T13:55:11.352Z,5.97
2019-05-26T13:57:39.948Z,5.77
2019-05-26T14:00:09.193Z,5.67
2019-05-26T14:02:37.827Z,6.37
2019-05-26T14:05:08.459Z,5.80
2019-05-26T14:07:37.109Z,5.70
2019-05-26T14:10:06.027Z,5.97
2019-05-26T14:12:34.578Z,6.90
2019-05-26T14:15:03.404Z,6.50
2019-05-26T14:17:32.214Z,6.33
2019-05-26T14:20:00.843Z,6.67
2019-05-26T14:22:29.425Z,6.10
2019-05-26T14:24:57.878Z,6.40
2019-05-26T14:27:26.338Z,6.50
2019-05-26T14:29:55.178Z,6.60
2019-05-26T14:32:23.802Z,6.27
2019-05-26T14:34:52.276Z,5.87
2019-05-26T14:37:20.772Z,6.63
2019-05-26T14:39:50.056Z,6.23
2019-05-26T14:42:18.739Z,6.53
2019-05-26T14:44:47.275Z,5.83
2019-05-26T14:47:16.622Z,5.53
2019-05-26T14:49:45.233Z,5.77
2019-05-26T14:52:13.842Z,5.80
2019-05-26T14:54:42.388Z,6.40
2019-05-26T14:57:10.998Z,6.33
2019-05-26T14:59:39.776Z,6.60
2019-05-26T15:02:08.402Z,5.73
2019-05-26T15:04:36.986Z,6.43
2019-05-26T15:07:05.467Z,6.07
2019-05-26T15:09:34.158Z,6.47
2019-05-26T15:12:02.844Z,5.90
2019-05-26T15:14:31.307Z,5.10
2019-05-26T15:16:59.869Z,5.20
2019-05-26T15:19:28.408Z,5.53
2019-05-26T15:21:56.915Z,6.00
2019-05-26T15:24:25.379Z,5.13
2019-05-26T15:26:53.837Z,5.27
2019-05-26T15:29:22.479Z,5.53
2019-05-26T15:31:50.935Z,5.93
2019-05-26T15:34:19.401Z,5.47
2019-05-26T15:36:47.990Z,6.17
2019-05-26T15:39:16.412Z,6.43
2019-05-26T15:41:45.027Z,5.57
2019-05-26T15:44:13.533Z,5.77
2019-05-26T15:46:42.050Z,6.23
2019-05-26T15:49:10.495Z,5.97
2019-05-26T15:51:39.050Z,7.07
2019-05-26T15:54:07.514Z,6.80
2019-05-26T15:56:36.222Z,6.70
2019-05-26T15:59:04.938Z,6.97
2019-05-26T16:01:33.522Z,7.17
2019-05-26T16:04:01.992Z,6.97
2019-05-26T16:06:30.487Z,6.57
2019-05-26T16:08:59.019Z,7.37
2019-05-26T16:11:27.544Z,6.03
2019-05-26T16:13:56.148Z,6.10
2019-05-26T16:16:32.456Z,6.83
2019-05-26T16:18:54.949Z,6.47
2019-05-26T16:21:28.063Z,6.50
2019-05-26T16:23:53.790Z,6.00
2019-05-26T16:26:22.308Z,5.30
2019-05-26T16:28:50.820Z,6.20
2019-05-26T16:31:19.302Z,5.30
2019-05-26T16:33:47.884Z,5.47
2019-05-26T16:36:16.364Z,4.67
2019-05-26T16:38:44.851Z,4.17
2019-05-26T16:41:13.333Z,4.40
2019-05-26T16:43:41.774Z,3.87
2019-05-26T16:46:10.239Z,4.83
2019-05-26T16:48:38.727Z,4.83
2019-05-26T16:51:07.243Z,5.10
2019-05-26T16:53:35.924Z,4.47
2019-05-26T16:56:04.583Z,5.17
2019-05-26T16:58:33.091Z,5.37
2019-05-26T17:01:01.587Z,5.37
2019-05-26T17:03:30.228Z,5.87
2019-05-26T17:06:07.474Z,5.07
2019-05-26T17:08:28.862Z,5.40
2019-05-26T17:10:57.395Z,5.47
2019-05-26T17:13:25.861Z,4.97
2019-05-26T17:15:57.323Z,5.63
2019-05-26T17:18:25.918Z,4.60
2019-05-26T17:20:54.623Z,4.70
2019-05-26T17:23:23.097Z,5.83
2019-05-26T17:25:51.570Z,5.20
2019-05-26T17:28:20.476Z,6.47
2019-05-26T17:30:48.970Z,6.17
2019-05-26T17:33:17.455Z,5.20
2019-05-26T17:35:45.953Z,5.03
2019-05-26T17:38:14.515Z,5.40
2019-05-26T17:40:43.038Z,5.47
2019-05-26T17:43:11.564Z,5.53
2019-05-26T17:45:40.139Z,6.33
2019-05-26T17:48:08.653Z,8.43
2019-05-26T17:50:37.102Z,6.13
2019-05-26T17:53:05.586Z,5.07
2019-05-26T17:55:34.031Z,3.87
2019-05-26T17:58:02.502Z,3.63
2019-05-26T18:00:31.046Z,3.40
2019-05-26T18:02:59.495Z,3.20
2019-05-26T18:05:28.035Z,4.10
2019-05-26T18:07:56.563Z,3.80
2019-05-26T18:10:25.047Z,3.87
2019-05-26T18:12:53.627Z,3.37
2019-05-26T18:15:22.234Z,4.70
2019-05-26T18:17:50.792Z,5.13
2019-05-26T18:20:19.254Z,3.50
2019-05-26T18:22:47.736Z,3.63
2019-05-26T18:25:16.215Z,4.93
2019-05-26T18:27:44.957Z,4.37
2019-05-26T18:30:13.491Z,3.77
2019-05-26T18:32:42.028Z,4.13
2019-05-26T18:35:10.576Z,4.20
2019-05-26T18:37:39.113Z,4.80
2019-05-26T18:40:07.892Z,4.97
2019-05-26T18:42:36.408Z,4.57
2019-05-26T18:45:08.766Z,4.43
2019-05-26T18:47:37.288Z,4.57
2019-05-26T18:50:06.464Z,3.53
2019-05-26T18:52:35.014Z,4.50
2019-05-26T18:55:03.530Z,5.10
2019-05-26T18:57:32.026Z,6.10
2019-05-26T19:00:00.479Z,4.47
2019-05-26T19:02:28.923Z,3.80
2019-05-26T19:04:57.544Z,3.50
2019-05-26T19:07:26.014Z,5.03
2019-05-26T19:09:54.454Z,4.67
2019-05-26T19:12:22.937Z,4.00
2019-05-26T19:14:51.520Z,3.30
2019-05-26T19:17:20.367Z,3.87
2019-05-26T19:19:48.906Z,3.57
2019-05-26T19:22:17.402Z,3.33
2019-05-26T19:24:45.903Z,3.33
2019-05-26T19:27:14.347Z,3.60
2019-05-26T19:29:42.930Z,4.00
2019-05-26T19:32:11.398Z,3.37
2019-05-26T19:34:42.747Z,3.67
2019-05-26T19:37:11.311Z,2.90
2019-05-26T19:39:39.798Z,3.73
2019-05-26T19:42:08.277Z,3.00
2019-05-26T19:44:38.376Z,2.97
2019-05-26T19:47:06.842Z,2.70
2019-05-26T19:49:35.284Z,3.07
2019-05-26T19:52:03.836Z,3.20
2019-05-26T19:54:32.500Z,3.43
2019-05-26T19:57:01.019Z,3.33
2019-05-26T19:59:29.458Z,3.00
2019-05-26T20:01:57.987Z,4.13
2019-05-26T20:04:26.589Z,3.47
2019-05-26T20:06:55.059Z,3.43
2019-05-26T20:09:23.581Z,3.30
2019-05-26T20:11:52.354Z,3.90
2019-05-26T20:14:21.062Z,4.80
2019-05-26T20:16:49.594Z,3.83
2019-05-26T20:19:18.128Z,4.90
2019-05-26T20:21:46.838Z,5.80
2019-05-26T20:24:15.570Z,4.73
2019-05-26T20:26:44.106Z,4.63
2019-05-26T20:29:12.625Z,5.27
2019-05-26T20:31:41.238Z,6.50
2019-05-26T20:34:09.799Z,6.60
2019-05-26T20:36:38.414Z,5.57
2019-05-26T20:39:09.159Z,6.83
2019-05-26T20:41:37.666Z,8.03
2019-05-26T20:44:06.273Z,7.00
2019-05-26T20:46:34.735Z,5.80
2019-05-26T20:49:03.483Z,5.30
2019-05-26T20:51:32.075Z,5.83
2019-05-26T20:54:00.511Z,5.37
2019-05-26T20:56:29.096Z,5.93
2019-05-26T20:58:57.556Z,6.27
2019-05-26T21:01:26.246Z,6.87
2019-05-26T21:03:54.959Z,5.90
2019-05-26T21:06:23.789Z,6.63
2019-05-26T21:08:53.765Z,7.77
2019-05-26T21:11:22.356Z,9.00
2019-05-26T21:13:50.836Z,6.23
2019-05-26T21:16:19.416Z,6.83
2019-05-26T21:18:47.898Z,6.17
2019-05-26T21:21:16.437Z,5.47
2019-05-26T21:23:45.070Z,5.03
2019-05-26T21:26:13.531Z,5.57
2019-05-26T21:28:42.100Z,5.20
2019-05-26T21:31:10.697Z,4.37
2019-05-26T21:33:39.395Z,4.60
2019-05-26T21:36:08.577Z,4.90
2019-05-26T21:38:37.344Z,4.77
2019-05-26T21:41:05.842Z,4.57
2019-05-26T21:43:34.317Z,4.20
2019-05-26T21:46:02.842Z,4.77
2019-05-26T21:48:34.617Z,5.93
2019-05-26T21:51:01.511Z,5.67
2019-05-26T21:53:29.942Z,5.60
2019-05-26T21:55:58.458Z,5.33
2019-05-26T21:58:27.067Z,5.33
2019-05-26T22:00:55.540Z,5.60
2019-05-26T22:03:24.222Z,5.33
2019-05-26T22:05:52.686Z,6.13
2019-05-26T22:08:21.123Z,6.03
2019-05-26T22:10:49.898Z,5.90
2019-05-26T22:13:18.609Z,7.00
2019-05-26T22:15:47.174Z,6.60
2019-05-26T22:18:15.658Z,7.27
2019-05-26T22:20:44.171Z,7.83
2019-05-26T22:23:12.724Z,8.17
2019-05-26T22:25:41.185Z,8.47
2019-05-26T22:28:09.727Z,8.93
2019-05-26T22:30:38.271Z,8.97
2019-05-26T22:33:08.089Z,9.73
2019-05-26T22:35:38.071Z,8.27
2019-05-26T22:38:06.771Z,9.43
2019-05-26T22:40:35.253Z,9.47
2019-05-26T22:43:03.706Z,9.97
2019-05-26T22:45:32.546Z,9.60
2019-05-26T22:48:01.134Z,11.10
2019-05-26T22:50:29.703Z,10.30
2019-05-26T22:52:59.758Z,10.93
2019-05-26T22:55:28.239Z,11.33
2019-05-26T22:57:56.935Z,10.70
2019-05-26T23:00:25.518Z,10.27
2019-05-26T23:02:54.327Z,9.37
2019-05-26T23:05:22.786Z,9.60
2019-05-26T23:07:51.286Z,10.30
2019-05-26T23:10:19.727Z,8.63
2019-05-26T23:12:48.193Z,8.13
2019-05-26T23:15:16.671Z,7.90
2019-05-26T23:17:45.127Z,8.00
2019-05-26T23:20:13.675Z,7.63
2019-05-26T23:22:42.131Z,6.97
2019-05-26T23:25:10.635Z,7.63
2019-05-26T23:27:39.114Z,6.23
2019-05-26T23:30:07.562Z,6.97
2019-05-26T23:32:36.080Z,6.60
2019-05-26T23:35:06.456Z,6.77
2019-05-26T23:37:34.954Z,6.17
2019-05-26T23:40:04.726Z,6.17
2019-05-26T23:42:33.283Z,6.63
2019-05-26T23:45:01.786Z,6.60
2019-05-26T23:47:30.245Z,7.50
2019-05-26T23:49:58.703Z,7.07
2019-05-26T23:52:27.266Z,7.50
2019-05-26T23:54:55.703Z,7.03
2019-05-26T23:57:24.224Z,6.33
2019-05-26T23:59:52.738Z,6.37
